Tenpaizan Maru — JD2032 — position and weather

sailwx.info

Track history (hours):
 
Tides and Currents Weather Stations Pressure Air Temp Water Temp Dewpoint Dewpoint Depression Visibility Wind Speed Wind Dir Waves Ship Positions

Tenpaizan Maru

Last reported at 2018-Feb-23 18:11 UTC. Time now 2018-Feb-24 09:56 UTC.
Position N 34°25' E 138°04'.

Length 126 m; draft 5.4 m.

Type: Cargo ship. MMSI: 431602283.

Date/timePositionNaut miles runAvg speedWind from/ knotsBaromVisibWave heightAir tempDewpointWater temp
2018-Feb-23 18:11N 34°25' E 138°04'613.1
2018-Feb-23 17:44N 34°27' E 138°11'313.1
2018-Feb-23 17:29N 34°28' E 138°15'613.5
2018-Feb-23 17:00N 34°29' E 138°23'713.6
2018-Feb-23 16:30N 34°30' E 138°31'713.8
2018-Feb-23 16:00N 34°31' E 138°39'713.9
2018-Feb-23 15:28N 34°32' E 138°48'613.6
2018-Feb-23 15:00N 34°33' E 138°56'814.5
2018-Feb-23 14:29N 34°38' E 139°03'1214.7
2018-Feb-23 13:42N 34°47' E 139°11'314.1
2018-Feb-23 13:28N 34°49' E 139°14'713.9
2018-Feb-23 12:57N 34°54' E 139°21'614.1
2018-Feb-23 12:30N 34°58' E 139°27'714.1
2018-Feb-23 12:01N 35°02' E 139°34'714.5
2018-Feb-23 11:30N 35°06' E 139°41'714.2
2018-Feb-23 11:00N 35°12' E 139°46'612.2
2018-Feb-23 10:30N 35°18' E 139°44'612.5
2018-Feb-23 10:00N 35°24' E 139°43'713.8
2018-Feb-23 09:31N 35°28' E 139°49'714.1
2018-Feb-23 09:00N 35°34' E 139°55'613.0
2018-Feb-23 08:30N 35°39' E 139°59'1 1.3
2018-Feb-23 07:43N 35°40' E 140°00'0 0.0
2018-Feb-23 07:25N 35°40' E 140°00'0 0.0
2018-Feb-23 04:22N 35°40' E 140°00'0 0.0
2018-Feb-23 03:46N 35°40' E 140°00'0 0.0
2018-Feb-23 03:28N 35°40' E 140°00'0 0.0
2018-Feb-22 23:54N 35°40' E 140°00'0 0.0
2018-Feb-22 23:21N 35°40' E 140°00'1 2.2
2018-Feb-22 22:58N 35°40' E 139°59'4 8.9
2018-Feb-22 22:30N 35°36' E 139°59'0 0.3
2018-Feb-22 21:59N 35°35' E 139°59'0 0.0
2018-Feb-22 21:29N 35°35' E 139°59'0 0.0
2018-Feb-22 20:59N 35°35' E 139°59'0 0.1
2018-Feb-22 20:29N 35°35' E 139°59'0 0.1
2018-Feb-22 19:59N 35°35' E 139°59'0 0.1
2018-Feb-22 19:29N 35°35' E 139°59'0 0.0
2018-Feb-22 18:59N 35°35' E 139°59'0 0.0
2018-Feb-22 18:29N 35°35' E 139°59'0 0.0
2018-Feb-22 17:59N 35°35' E 139°59'0 0.0
2018-Feb-22 17:29N 35°35' E 139°59'0 0.1
2018-Feb-22 16:59N 35°35' E 139°59'0 0.0
2018-Feb-22 16:29N 35°35' E 139°59'0 0.0
2018-Feb-22 15:59N 35°35' E 139°59'0 0.7
2018-Feb-22 15:30N 35°35' E 139°59'611.5
2018-Feb-22 15:00N 35°31' E 139°54'612.9
2018-Feb-22 14:30N 35°26' E 139°49'612.5
2018-Feb-22 14:00N 35°21' E 139°45'611.6
2018-Feb-22 13:30N 35°16' E 139°47'612.7
2018-Feb-22 13:00N 35°09' E 139°46'713.3
2018-Feb-22 12:30N 35°03' E 139°42'713.6
2018-Feb-22 12:00N 34°59' E 139°35'713.4
2018-Feb-22 11:27N 34°54' E 139°28'713.1
2018-Feb-22 10:57N 34°50' E 139°22'612.7
2018-Feb-22 10:29N 34°47' E 139°16'812.5
2018-Feb-22 09:53N 34°41' E 139°10'512.5
2018-Feb-22 09:30N 34°38' E 139°06'612.7
2018-Feb-22 09:01N 34°34' E 139°00'713.5
2018-Feb-22 08:31N 34°31' E 138°53'813.6
2018-Feb-22 07:57N 34°28' E 138°44'613.3
2018-Feb-22 07:31N 34°26' E 138°38'713.9
2018-Feb-22 07:00N 34°23' E 138°30'814.3
2018-Feb-22 06:27N 34°20' E 138°21'1014.4
2018-Feb-22 05:46N 34°17' E 138°10'613.9
2018-Feb-22 05:21N 34°15' E 138°03'30412.4
2018-Feb-21 04:54N 33°11' E 132°06'714.6
2018-Feb-21 04:26N 33°16' E 132°01'613.7
2018-Feb-21 03:59N 33°22' E 131°57'713.6
2018-Feb-21 03:28N 33°28' E 131°53'613.4
2018-Feb-21 03:00N 33°33' E 131°49'713.4
2018-Feb-21 02:30N 33°38' E 131°44'713.1
2018-Feb-21 02:00N 33°42' E 131°37'612.7
2018-Feb-21 01:30N 33°44' E 131°30'713.0
2018-Feb-21 01:00N 33°45' E 131°22'713.1
2018-Feb-21 00:30N 33°47' E 131°15'713.0
2018-Feb-21 00:00N 33°48' E 131°07'611.1
2018-Feb-20 23:30N 33°48' E 131°01'1 1.7
2018-Feb-20 23:00N 33°48' E 130°60'0 0.0
2018-Feb-20 22:30N 33°48' E 130°60'0 0.0
2018-Feb-20 22:00N 33°48' E 130°60'0 0.0
2018-Feb-20 21:18N 33°48' E 130°60'0 0.0
2018-Feb-20 21:00N 33°48' E 130°60'0 0.0
2018-Feb-20 20:30N 33°48' E 130°60'0 0.0
2018-Feb-20 20:00N 33°48' E 130°60'0 0.0
2018-Feb-20 19:30N 33°48' E 130°60'0 0.0
2018-Feb-20 19:00N 33°48' E 130°60'0 0.0
2018-Feb-20 17:12N 33°48' E 130°60'0 0.0
2018-Feb-20 17:00N 33°48' E 130°60'0 0.0
2018-Feb-20 16:30N 33°48' E 130°60'0 0.0
2018-Feb-20 16:00N 33°48' E 130°60'0 0.0
2018-Feb-20 15:30N 33°48' E 130°60'0 0.0
2018-Feb-20 14:36N 33°48' E 130°60'0 0.1
2018-Feb-20 14:30N 33°48' E 130°60'0 0.0
2018-Feb-20 13:54N 33°48' E 130°60'0 0.0
2018-Feb-20 13:30N 33°48' E 130°60'0 0.0
2018-Feb-20 13:00N 33°48' E 130°60'0 0.0
2018-Feb-20 12:30N 33°48' E 130°60'1 1.2
2018-Feb-20 12:00N 33°48' E 131°00'611.3
2018-Feb-20 11:31N 33°51' E 131°06'713.1
2018-Feb-20 11:00N 33°54' E 131°13'3 4.4
2018-Feb-20 10:19N 33°57' E 131°14'0 0.0
2018-Feb-20 09:46N 33°57' E 131°14'0 0.0
2018-Feb-20 09:25N 33°57' E 131°14'0 0.0
2018-Feb-20 08:55N 33°57' E 131°14'0 0.0
2018-Feb-20 08:25N 33°57' E 131°14'0 0.0
2018-Feb-20 07:55N 33°57' E 131°14'0 0.0
2018-Feb-20 07:13N 33°57' E 131°14'0 0.0
2018-Feb-20 06:55N 33°57' E 131°14'0 0.0
2018-Feb-20 06:25N 33°57' E 131°14'0 0.0
2018-Feb-20 05:49N 33°57' E 131°14'0 0.0
2018-Feb-20 05:25N 33°57' E 131°14'0 0.0
2018-Feb-20 05:01N 33°57' E 131°14'0 0.0
2018-Feb-20 04:31N 33°57' E 131°14'0 0.0
2018-Feb-20 04:01N 33°57' E 131°14'0 0.0
2018-Feb-20 03:30N 33°57' E 131°14'0 0.0
2018-Feb-20 03:00N 33°57' E 131°14'0 0.0
2018-Feb-20 02:30N 33°57' E 131°14'0 0.0
2018-Feb-20 01:57N 33°57' E 131°14'1 1.3
2018-Feb-20 01:30N 33°56' E 131°14'2 3.6
2018-Feb-20 01:00N 33°55' E 131°13'0 0.1
2018-Feb-20 00:31N 33°55' E 131°13'0 0.7
2018-Feb-20 00:01N 33°55' E 131°13'1 2.0
2018-Feb-19 23:28N 33°54' E 131°13'0 0.1
2018-Feb-19 22:58N 33°54' E 131°13'0 0.1
2018-Feb-19 22:25N 33°54' E 131°13'0 0.0
2018-Feb-19 21:55N 33°54' E 131°13'0 0.1
2018-Feb-19 21:25N 33°54' E 131°13'0 0.0
2018-Feb-19 20:58N 33°54' E 131°13'0 0.2
2018-Feb-19 20:28N 33°54' E 131°13'0 0.0
2018-Feb-19 19:58N 33°54' E 131°13'0 0.0
2018-Feb-19 19:28N 33°54' E 131°13'0 0.0
2018-Feb-19 18:58N 33°54' E 131°13'0 0.0
2018-Feb-19 18:28N 33°54' E 131°13'0 0.0
2018-Feb-19 17:58N 33°54' E 131°13'0 0.0
2018-Feb-19 17:28N 33°54' E 131°13'0 0.0
2018-Feb-19 16:55N 33°54' E 131°13'0 0.0
2018-Feb-19 16:28N 33°54' E 131°13'0 0.0
2018-Feb-19 15:58N 33°54' E 131°13'0 0.0
2018-Feb-19 15:28N 33°54' E 131°13'0 0.0
2018-Feb-19 15:01N 33°54' E 131°13'0 0.2
2018-Feb-19 14:28N 33°54' E 131°13'0 0.1
2018-Feb-19 14:00N 33°54' E 131°13'0 0.1
2018-Feb-19 13:30N 33°54' E 131°13'0 0.0
2018-Feb-19 12:57N 33°54' E 131°13'0 0.1
2018-Feb-19 12:30N 33°54' E 131°13'0 0.1
2018-Feb-19 12:00N 33°54' E 131°13'2 3.6
2018-Feb-19 11:30N 33°53' E 131°12'611.3
2018-Feb-19 11:00N 33°55' E 131°06'612.7
2018-Feb-19 10:30N 33°58' E 130°59'611.7
2018-Feb-19 10:00N 33°55' E 130°54'4 7.8
2018-Feb-19 09:30N 33°54' E 130°49'4 7.1
2018-Feb-19 09:00N 33°53' E 130°45'0 0.0
2018-Feb-19 08:24N 33°52' E 130°45'0 0.0
2018-Feb-19 08:00N 33°52' E 130°45'0 0.0
2018-Feb-19 07:30N 33°52' E 130°45'0 0.0
2018-Feb-19 07:00N 33°52' E 130°45'0 0.0
2018-Feb-19 06:30N 33°52' E 130°45'0 0.0
2018-Feb-19 06:00N 33°52' E 130°45'0 0.0
2018-Feb-19 05:30N 33°52' E 130°45'0 0.0
2018-Feb-19 05:00N 33°52' E 130°45'2 3.5
2018-Feb-19 04:30N 33°53' E 130°47'510.0
2018-Feb-19 04:00N 33°56' E 130°52'3 6.7
2018-Feb-19 03:30N 33°55' E 130°55'713.1
2018-Feb-19 03:01N 33°58' E 131°01'714.6
2018-Feb-19 02:30N 33°54' E 131°08'713.5
2018-Feb-19 02:01N 33°51' E 131°16'713.7
2018-Feb-19 01:30N 33°50' E 131°24'4 8.0
2018-Feb-19 01:00N 33°49' E 131°29'611.5
2018-Feb-19 00:30N 33°53' E 131°33'4 8.2
2018-Feb-19 00:00N 33°53' E 131°38'713.8
2018-Feb-18 23:30N 33°49' E 131°44'713.2
2018-Feb-18 23:00N 33°44' E 131°50'713.2
2018-Feb-18 22:30N 33°37' E 131°49'713.7
2018-Feb-18 22:00N 33°32' E 131°55'714.1
2018-Feb-18 21:30N 33°25' E 131°57'714.5
2018-Feb-18 21:00N 33°18' E 132°00'612.9
2018-Feb-18 20:31N 33°13' E 132°05'14610.9
2018-Feb-18 07:03N 33°35' E 134°58'113.2
2018-Feb-18 06:58N 33°35' E 134°59'9012.5
2018-Feb-17 23:43N 34°02' E 136°43'6413.4
2018-Feb-17 18:56N 34°32' E 137°52'612.3
2018-Feb-17 18:27N 34°32' E 137°59'511.8
2018-Feb-17 17:59N 34°32' E 138°06'811.1
2018-Feb-17 17:15N 34°32' E 138°15'411.0
2018-Feb-17 16:52N 34°32' E 138°20'410.8
2018-Feb-17 16:29N 34°33' E 138°26'510.3
2018-Feb-17 15:57N 34°33' E 138°32'4 8.7
2018-Feb-17 15:30N 34°33' E 138°37'4 7.3
2018-Feb-17 15:00N 34°34' E 138°41'4 7.1
2018-Feb-17 14:28N 34°34' E 138°46'3 6.8
2018-Feb-17 14:00N 34°35' E 138°50'3 6.2
2018-Feb-17 13:27N 34°35' E 138°54'3 6.5
2018-Feb-17 12:57N 34°36' E 138°57'510.5
2018-Feb-17 12:27N 34°40' E 139°03'812.2
2018-Feb-17 11:46N 34°46' E 139°09'311.7
2018-Feb-17 11:30N 34°48' E 139°11'612.1
2018-Feb-17 10:59N 34°53' E 139°17'611.9
2018-Feb-17 10:29N 34°57' E 139°22'611.1
2018-Feb-17 09:59N 34°60' E 139°28'611.5
2018-Feb-17 09:30N 35°03' E 139°34'714.1
2018-Feb-17 09:00N 35°06' E 139°41'714.4
2018-Feb-17 08:30N 35°12' E 139°46'612.8
2018-Feb-17 08:00N 35°18' E 139°44'713.1
2018-Feb-17 07:30N 35°25' E 139°43'713.9
2018-Feb-17 07:00N 35°29' E 139°50'714.2
2018-Feb-17 06:31N 35°34' E 139°55'612.3
2018-Feb-17 05:59N 35°40' E 139°59'1 0.2
2018-Feb-17 01:37N 35°40' E 140°00'0 0.0
2018-Feb-16 23:07N 35°40' E 140°00'1 3.7
2018-Feb-16 22:56N 35°40' E 139°59'3 7.8
2018-Feb-16 22:30N 35°36' E 139°59'0 0.1
2018-Feb-16 21:58N 35°36' E 139°59'0 0.0
2018-Feb-16 21:25N 35°36' E 139°59'0 0.1
2018-Feb-16 20:58N 35°36' E 139°59'0 0.0
2018-Feb-16 20:25N 35°36' E 139°59'0 0.1
2018-Feb-16 19:58N 35°36' E 139°59'1 1.2
2018-Feb-16 19:30N 35°36' E 139°59'612.1
2018-Feb-16 19:00N 35°31' E 139°54'612.9
2018-Feb-16 18:30N 35°26' E 139°49'713.0
2018-Feb-16 18:00N 35°21' E 139°45'612.6
2018-Feb-16 17:30N 35°15' E 139°47'612.8
2018-Feb-16 17:00N 35°08' E 139°46'612.2
2018-Feb-16 16:30N 35°03' E 139°42'713.4
2018-Feb-16 16:00N 34°59' E 139°36'814.8
2018-Feb-16 15:28N 34°55' E 139°28'715.8
2018-Feb-16 15:00N 34°50' E 139°21'815.1
2018-Feb-16 14:30N 34°45' E 139°14'815.8
2018-Feb-16 14:00N 34°39' E 139°07'715.2
2018-Feb-16 13:30N 34°35' E 139°00'714.2
2018-Feb-16 13:00N 34°33' E 138°52'714.2
2018-Feb-16 12:29N 34°32' E 138°43'714.0
2018-Feb-16 11:58N 34°32' E 138°34'613.4
2018-Feb-16 11:30N 34°32' E 138°27'814.3
2018-Feb-16 10:58N 34°32' E 138°18'714.1
2018-Feb-16 10:28N 34°32' E 138°09'613.5
2018-Feb-16 10:00N 34°32' E 138°01'813.2
2018-Feb-16 09:25N 34°32' E 137°52'612.4
2018-Feb-16 08:57N 34°32' E 137°45'1812.1
2018-Feb-16 07:29N 34°32' E 137°23'612.5
2018-Feb-16 06:59N 34°32' E 137°16'1112.3
2018-Feb-16 06:07N 34°32' E 137°03'511.5
2018-Feb-16 05:42N 34°35' E 136°58'212.4
2018-Feb-16 05:30N 34°37' E 136°56'612.6
2018-Feb-16 05:00N 34°41' E 136°50'713.2
2018-Feb-16 04:30N 34°47' E 136°46'613.0
2018-Feb-16 04:00N 34°53' E 136°46'612.8
2018-Feb-16 03:30N 34°59' E 136°49'5 9.4
2018-Feb-16 03:00N 35°03' E 136°52'1 2.7
2018-Feb-16 02:30N 35°04' E 136°53'0 0.0
2018-Feb-16 02:00N 35°04' E 136°53'0 0.0
2018-Feb-16 01:30N 35°04' E 136°53'0 0.0
2018-Feb-16 01:00N 35°04' E 136°53'0 0.0
2018-Feb-16 00:30N 35°04' E 136°53'0 0.0
2018-Feb-16 00:00N 35°04' E 136°53'0 0.0
2018-Feb-15 23:27N 35°04' E 136°53'0 0.0
2018-Feb-15 23:00N 35°04' E 136°53'0 0.0
2018-Feb-15 22:30N 35°04' E 136°53'0 0.0
2018-Feb-15 22:00N 35°04' E 136°53'0 0.7
2018-Feb-15 21:30N 35°03' E 136°53'4 8.6
2018-Feb-15 21:00N 35°00' E 136°50'3 6.3
2018-Feb-15 20:30N 34°58' E 136°47'0 0.2
2018-Feb-15 20:00N 34°58' E 136°47'0 0.0
2018-Feb-15 19:30N 34°58' E 136°47'0 0.1
2018-Feb-15 19:00N 34°58' E 136°47'0 0.1
2018-Feb-15 18:30N 34°58' E 136°47'0 0.0
2018-Feb-15 18:00N 34°58' E 136°47'0 0.0
2018-Feb-15 17:30N 34°58' E 136°47'0 0.0
2018-Feb-15 17:00N 34°58' E 136°47'0 0.1
2018-Feb-15 16:30N 34°58' E 136°47'0 0.0
2018-Feb-15 16:00N 34°58' E 136°47'0 0.0
2018-Feb-15 15:30N 34°58' E 136°47'0 0.0
2018-Feb-15 15:00N 34°58' E 136°47'1 1.5
2018-Feb-15 14:30N 34°57' E 136°47'610.8
2018-Feb-15 14:00N 34°51' E 136°47'611.8
2018-Feb-15 13:30N 34°46' E 136°49'611.5
2018-Feb-15 12:59N 34°41' E 136°53'711.7
2018-Feb-15 12:23N 34°35' E 136°58'3210.8
2018-Feb-15 09:28N 34°05' E 136°48'19512.6
2018-Feb-14 18:02N 32°45' E 133°15'6312.5
2018-Feb-14 13:03N 33°11' E 132°07'314.1
2018-Feb-14 12:49N 33°13' E 132°04'513.7
2018-Feb-14 12:27N 33°17' E 132°01'612.5
2018-Feb-14 11:59N 33°22' E 131°57'912.8
2018-Feb-14 11:16N 33°30' E 131°52'312.8
2018-Feb-14 11:00N 33°33' E 131°50'612.7
2018-Feb-14 10:30N 33°38' E 131°45'612.4
2018-Feb-14 10:00N 33°41' E 131°39'612.3
2018-Feb-14 09:30N 33°43' E 131°32'612.5
2018-Feb-14 09:00N 33°45' E 131°24'612.8
2018-Feb-14 08:31N 33°46' E 131°17'613.0
2018-Feb-14 08:00N 33°48' E 131°09'612.1
2018-Feb-14 07:31N 33°48' E 131°02'2 0.7
2018-Feb-14 04:32N 33°48' E 130°60'0 0.1
2018-Feb-14 04:20N 33°48' E 130°60'0 0.0
2018-Feb-14 03:56N 33°48' E 130°60'0 0.0
2018-Feb-14 03:26N 33°48' E 130°60'0 0.0
2018-Feb-14 01:08N 33°48' E 130°60'0 0.1
2018-Feb-14 00:56N 33°48' E 130°60'0 0.0
2018-Feb-14 00:26N 33°48' E 130°60'0 0.0
2018-Feb-13 23:56N 33°48' E 130°60'0 0.0
2018-Feb-13 23:26N 33°48' E 130°60'0 0.0
2018-Feb-13 22:55N 33°48' E 130°60'0 0.0
2018-Feb-13 22:25N 33°48' E 130°60'0 0.0
2018-Feb-13 21:55N 33°48' E 130°60'0 0.0
2018-Feb-13 21:25N 33°48' E 130°60'0 0.0
2018-Feb-13 20:55N 33°48' E 130°60'0 0.0
2018-Feb-13 20:19N 33°48' E 130°60'0 0.0
2018-Feb-13 19:55N 33°48' E 130°60'0 0.0
2018-Feb-13 19:13N 33°48' E 130°60'0 0.0
2018-Feb-13 18:49N 33°48' E 130°60'  
Track history (hours):
 
Tides and Currents Weather Stations Pressure Air Temp Water Temp Dewpoint Dewpoint Depression Visibility Wind Speed Wind Dir Waves Ship Positions

Tenpaizan Maru

Last reported at 2018-Feb-23 18:11 UTC. Time now 2018-Feb-24 09:56 UTC.
Position N 34°25' E 138°04'.

Length 126 m; draft 5.4 m.

Type: Cargo ship. MMSI: 431602283.

Date/timePositionNaut miles runAvg speedWind from/ knotsBaromVisibWave heightAir tempDewpointWater temp
2018-Feb-23 18:11N 34°25' E 138°04'613.1
2018-Feb-23 17:44N 34°27' E 138°11'313.1
2018-Feb-23 17:29N 34°28' E 138°15'613.5
2018-Feb-23 17:00N 34°29' E 138°23'713.6
2018-Feb-23 16:30N 34°30' E 138°31'713.8
2018-Feb-23 16:00N 34°31' E 138°39'713.9
2018-Feb-23 15:28N 34°32' E 138°48'613.6
2018-Feb-23 15:00N 34°33' E 138°56'814.5
2018-Feb-23 14:29N 34°38' E 139°03'1214.7
2018-Feb-23 13:42N 34°47' E 139°11'314.1
2018-Feb-23 13:28N 34°49' E 139°14'713.9
2018-Feb-23 12:57N 34°54' E 139°21'614.1
2018-Feb-23 12:30N 34°58' E 139°27'714.1
2018-Feb-23 12:01N 35°02' E 139°34'714.5
2018-Feb-23 11:30N 35°06' E 139°41'714.2
2018-Feb-23 11:00N 35°12' E 139°46'612.2
2018-Feb-23 10:30N 35°18' E 139°44'612.5
2018-Feb-23 10:00N 35°24' E 139°43'713.8
2018-Feb-23 09:31N 35°28' E 139°49'714.1
2018-Feb-23 09:00N 35°34' E 139°55'613.0
2018-Feb-23 08:30N 35°39' E 139°59'1 1.3
2018-Feb-23 07:43N 35°40' E 140°00'0 0.0
2018-Feb-23 07:25N 35°40' E 140°00'0 0.0
2018-Feb-23 04:22N 35°40' E 140°00'0 0.0
2018-Feb-23 03:46N 35°40' E 140°00'0 0.0
2018-Feb-23 03:28N 35°40' E 140°00'0 0.0
2018-Feb-22 23:54N 35°40' E 140°00'0 0.0
2018-Feb-22 23:21N 35°40' E 140°00'1 2.2
2018-Feb-22 22:58N 35°40' E 139°59'4 8.9
2018-Feb-22 22:30N 35°36' E 139°59'0 0.3
2018-Feb-22 21:59N 35°35' E 139°59'0 0.0
2018-Feb-22 21:29N 35°35' E 139°59'0 0.0
2018-Feb-22 20:59N 35°35' E 139°59'0 0.1
2018-Feb-22 20:29N 35°35' E 139°59'0 0.1
2018-Feb-22 19:59N 35°35' E 139°59'0 0.1
2018-Feb-22 19:29N 35°35' E 139°59'0 0.0
2018-Feb-22 18:59N 35°35' E 139°59'0 0.0
2018-Feb-22 18:29N 35°35' E 139°59'0 0.0
2018-Feb-22 17:59N 35°35' E 139°59'0 0.0
2018-Feb-22 17:29N 35°35' E 139°59'0 0.1
2018-Feb-22 16:59N 35°35' E 139°59'0 0.0
2018-Feb-22 16:29N 35°35' E 139°59'0 0.0
2018-Feb-22 15:59N 35°35' E 139°59'0 0.7
2018-Feb-22 15:30N 35°35' E 139°59'611.5
2018-Feb-22 15:00N 35°31' E 139°54'612.9
2018-Feb-22 14:30N 35°26' E 139°49'612.5
2018-Feb-22 14:00N 35°21' E 139°45'611.6
2018-Feb-22 13:30N 35°16' E 139°47'612.7
2018-Feb-22 13:00N 35°09' E 139°46'713.3
2018-Feb-22 12:30N 35°03' E 139°42'713.6
2018-Feb-22 12:00N 34°59' E 139°35'713.4
2018-Feb-22 11:27N 34°54' E 139°28'713.1
2018-Feb-22 10:57N 34°50' E 139°22'612.7
2018-Feb-22 10:29N 34°47' E 139°16'812.5
2018-Feb-22 09:53N 34°41' E 139°10'512.5
2018-Feb-22 09:30N 34°38' E 139°06'612.7
2018-Feb-22 09:01N 34°34' E 139°00'713.5
2018-Feb-22 08:31N 34°31' E 138°53'813.6
2018-Feb-22 07:57N 34°28' E 138°44'613.3
2018-Feb-22 07:31N 34°26' E 138°38'713.9
2018-Feb-22 07:00N 34°23' E 138°30'814.3
2018-Feb-22 06:27N 34°20' E 138°21'1014.4
2018-Feb-22 05:46N 34°17' E 138°10'613.9
2018-Feb-22 05:21N 34°15' E 138°03'30412.4
2018-Feb-21 04:54N 33°11' E 132°06'714.6
2018-Feb-21 04:26N 33°16' E 132°01'613.7
2018-Feb-21 03:59N 33°22' E 131°57'713.6
2018-Feb-21 03:28N 33°28' E 131°53'613.4
2018-Feb-21 03:00N 33°33' E 131°49'713.4
2018-Feb-21 02:30N 33°38' E 131°44'713.1
2018-Feb-21 02:00N 33°42' E 131°37'612.7
2018-Feb-21 01:30N 33°44' E 131°30'713.0
2018-Feb-21 01:00N 33°45' E 131°22'713.1
2018-Feb-21 00:30N 33°47' E 131°15'713.0
2018-Feb-21 00:00N 33°48' E 131°07'611.1
2018-Feb-20 23:30N 33°48' E 131°01'1 1.7
2018-Feb-20 23:00N 33°48' E 130°60'0 0.0
2018-Feb-20 22:30N 33°48' E 130°60'0 0.0
2018-Feb-20 22:00N 33°48' E 130°60'0 0.0
2018-Feb-20 21:18N 33°48' E 130°60'0 0.0
2018-Feb-20 21:00N 33°48' E 130°60'0 0.0
2018-Feb-20 20:30N 33°48' E 130°60'0 0.0
2018-Feb-20 20:00N 33°48' E 130°60'0 0.0
2018-Feb-20 19:30N 33°48' E 130°60'0 0.0
2018-Feb-20 19:00N 33°48' E 130°60'0 0.0
2018-Feb-20 17:12N 33°48' E 130°60'0 0.0
2018-Feb-20 17:00N 33°48' E 130°60'0 0.0
2018-Feb-20 16:30N 33°48' E 130°60'0 0.0
2018-Feb-20 16:00N 33°48' E 130°60'0 0.0
2018-Feb-20 15:30N 33°48' E 130°60'0 0.0
2018-Feb-20 14:36N 33°48' E 130°60'0 0.1
2018-Feb-20 14:30N 33°48' E 130°60'0 0.0
2018-Feb-20 13:54N 33°48' E 130°60'0 0.0
2018-Feb-20 13:30N 33°48' E 130°60'0 0.0
2018-Feb-20 13:00N 33°48' E 130°60'0 0.0
2018-Feb-20 12:30N 33°48' E 130°60'1 1.2
2018-Feb-20 12:00N 33°48' E 131°00'611.3
2018-Feb-20 11:31N 33°51' E 131°06'713.1
2018-Feb-20 11:00N 33°54' E 131°13'3 4.4
2018-Feb-20 10:19N 33°57' E 131°14'0 0.0
2018-Feb-20 09:46N 33°57' E 131°14'0 0.0
2018-Feb-20 09:25N 33°57' E 131°14'0 0.0
2018-Feb-20 08:55N 33°57' E 131°14'0 0.0
2018-Feb-20 08:25N 33°57' E 131°14'0 0.0
2018-Feb-20 07:55N 33°57' E 131°14'0 0.0
2018-Feb-20 07:13N 33°57' E 131°14'0 0.0
2018-Feb-20 06:55N 33°57' E 131°14'0 0.0
2018-Feb-20 06:25N 33°57' E 131°14'0 0.0
2018-Feb-20 05:49N 33°57' E 131°14'0 0.0
2018-Feb-20 05:25N 33°57' E 131°14'0 0.0
2018-Feb-20 05:01N 33°57' E 131°14'0 0.0
2018-Feb-20 04:31N 33°57' E 131°14'0 0.0
2018-Feb-20 04:01N 33°57' E 131°14'0 0.0
2018-Feb-20 03:30N 33°57' E 131°14'0 0.0
2018-Feb-20 03:00N 33°57' E 131°14'0 0.0
2018-Feb-20 02:30N 33°57' E 131°14'0 0.0
2018-Feb-20 01:57N 33°57' E 131°14'1 1.3
2018-Feb-20 01:30N 33°56' E 131°14'2 3.6
2018-Feb-20 01:00N 33°55' E 131°13'0 0.1
2018-Feb-20 00:31N 33°55' E 131°13'0 0.7
2018-Feb-20 00:01N 33°55' E 131°13'1 2.0
2018-Feb-19 23:28N 33°54' E 131°13'0 0.1
2018-Feb-19 22:58N 33°54' E 131°13'0 0.1
2018-Feb-19 22:25N 33°54' E 131°13'0 0.0
2018-Feb-19 21:55N 33°54' E 131°13'0 0.1
2018-Feb-19 21:25N 33°54' E 131°13'0 0.0
2018-Feb-19 20:58N 33°54' E 131°13'0 0.2
2018-Feb-19 20:28N 33°54' E 131°13'0 0.0
2018-Feb-19 19:58N 33°54' E 131°13'0 0.0
2018-Feb-19 19:28N 33°54' E 131°13'0 0.0
2018-Feb-19 18:58N 33°54' E 131°13'0 0.0
2018-Feb-19 18:28N 33°54' E 131°13'0 0.0
2018-Feb-19 17:58N 33°54' E 131°13'0 0.0
2018-Feb-19 17:28N 33°54' E 131°13'0 0.0
2018-Feb-19 16:55N 33°54' E 131°13'0 0.0
2018-Feb-19 16:28N 33°54' E 131°13'0 0.0
2018-Feb-19 15:58N 33°54' E 131°13'0 0.0
2018-Feb-19 15:28N 33°54' E 131°13'0 0.0
2018-Feb-19 15:01N 33°54' E 131°13'0 0.2
2018-Feb-19 14:28N 33°54' E 131°13'0 0.1
2018-Feb-19 14:00N 33°54' E 131°13'0 0.1
2018-Feb-19 13:30N 33°54' E 131°13'0 0.0
2018-Feb-19 12:57N 33°54' E 131°13'0 0.1
2018-Feb-19 12:30N 33°54' E 131°13'0 0.1
2018-Feb-19 12:00N 33°54' E 131°13'2 3.6
2018-Feb-19 11:30N 33°53' E 131°12'611.3
2018-Feb-19 11:00N 33°55' E 131°06'612.7
2018-Feb-19 10:30N 33°58' E 130°59'611.7
2018-Feb-19 10:00N 33°55' E 130°54'4 7.8
2018-Feb-19 09:30N 33°54' E 130°49'4 7.1
2018-Feb-19 09:00N 33°53' E 130°45'0 0.0
2018-Feb-19 08:24N 33°52' E 130°45'0 0.0
2018-Feb-19 08:00N 33°52' E 130°45'0 0.0
2018-Feb-19 07:30N 33°52' E 130°45'0 0.0
2018-Feb-19 07:00N 33°52' E 130°45'0 0.0
2018-Feb-19 06:30N 33°52' E 130°45'0 0.0
2018-Feb-19 06:00N 33°52' E 130°45'0 0.0
2018-Feb-19 05:30N 33°52' E 130°45'0 0.0
2018-Feb-19 05:00N 33°52' E 130°45'2 3.5
2018-Feb-19 04:30N 33°53' E 130°47'510.0
2018-Feb-19 04:00N 33°56' E 130°52'3 6.7
2018-Feb-19 03:30N 33°55' E 130°55'713.1
2018-Feb-19 03:01N 33°58' E 131°01'714.6
2018-Feb-19 02:30N 33°54' E 131°08'713.5
2018-Feb-19 02:01N 33°51' E 131°16'713.7
2018-Feb-19 01:30N 33°50' E 131°24'4 8.0
2018-Feb-19 01:00N 33°49' E 131°29'611.5
2018-Feb-19 00:30N 33°53' E 131°33'4 8.2
2018-Feb-19 00:00N 33°53' E 131°38'713.8
2018-Feb-18 23:30N 33°49' E 131°44'713.2
2018-Feb-18 23:00N 33°44' E 131°50'713.2
2018-Feb-18 22:30N 33°37' E 131°49'713.7
2018-Feb-18 22:00N 33°32' E 131°55'714.1
2018-Feb-18 21:30N 33°25' E 131°57'714.5
2018-Feb-18 21:00N 33°18' E 132°00'612.9
2018-Feb-18 20:31N 33°13' E 132°05'14610.9
2018-Feb-18 07:03N 33°35' E 134°58'113.2
2018-Feb-18 06:58N 33°35' E 134°59'9012.5
2018-Feb-17 23:43N 34°02' E 136°43'6413.4
2018-Feb-17 18:56N 34°32' E 137°52'612.3
2018-Feb-17 18:27N 34°32' E 137°59'511.8
2018-Feb-17 17:59N 34°32' E 138°06'811.1
2018-Feb-17 17:15N 34°32' E 138°15'411.0
2018-Feb-17 16:52N 34°32' E 138°20'410.8
2018-Feb-17 16:29N 34°33' E 138°26'510.3
2018-Feb-17 15:57N 34°33' E 138°32'4 8.7
2018-Feb-17 15:30N 34°33' E 138°37'4 7.3
2018-Feb-17 15:00N 34°34' E 138°41'4 7.1
2018-Feb-17 14:28N 34°34' E 138°46'3 6.8
2018-Feb-17 14:00N 34°35' E 138°50'3 6.2
2018-Feb-17 13:27N 34°35' E 138°54'3 6.5
2018-Feb-17 12:57N 34°36' E 138°57'510.5
2018-Feb-17 12:27N 34°40' E 139°03'812.2
2018-Feb-17 11:46N 34°46' E 139°09'311.7
2018-Feb-17 11:30N 34°48' E 139°11'612.1
2018-Feb-17 10:59N 34°53' E 139°17'611.9
2018-Feb-17 10:29N 34°57' E 139°22'611.1
2018-Feb-17 09:59N 34°60' E 139°28'611.5
2018-Feb-17 09:30N 35°03' E 139°34'714.1
2018-Feb-17 09:00N 35°06' E 139°41'714.4
2018-Feb-17 08:30N 35°12' E 139°46'612.8
2018-Feb-17 08:00N 35°18' E 139°44'713.1
2018-Feb-17 07:30N 35°25' E 139°43'713.9
2018-Feb-17 07:00N 35°29' E 139°50'714.2
2018-Feb-17 06:31N 35°34' E 139°55'612.3
2018-Feb-17 05:59N 35°40' E 139°59'1 0.2
2018-Feb-17 01:37N 35°40' E 140°00'0 0.0
2018-Feb-16 23:07N 35°40' E 140°00'1 3.7
2018-Feb-16 22:56N 35°40' E 139°59'3 7.8
2018-Feb-16 22:30N 35°36' E 139°59'0 0.1
2018-Feb-16 21:58N 35°36' E 139°59'0 0.0
2018-Feb-16 21:25N 35°36' E 139°59'0 0.1
2018-Feb-16 20:58N 35°36' E 139°59'0 0.0
2018-Feb-16 20:25N 35°36' E 139°59'0 0.1
2018-Feb-16 19:58N 35°36' E 139°59'1 1.2
2018-Feb-16 19:30N 35°36' E 139°59'612.1
2018-Feb-16 19:00N 35°31' E 139°54'612.9
2018-Feb-16 18:30N 35°26' E 139°49'713.0
2018-Feb-16 18:00N 35°21' E 139°45'612.6
2018-Feb-16 17:30N 35°15' E 139°47'612.8
2018-Feb-16 17:00N 35°08' E 139°46'612.2
2018-Feb-16 16:30N 35°03' E 139°42'713.4
2018-Feb-16 16:00N 34°59' E 139°36'814.8
2018-Feb-16 15:28N 34°55' E 139°28'715.8
2018-Feb-16 15:00N 34°50' E 139°21'815.1
2018-Feb-16 14:30N 34°45' E 139°14'815.8
2018-Feb-16 14:00N 34°39' E 139°07'715.2
2018-Feb-16 13:30N 34°35' E 139°00'714.2
2018-Feb-16 13:00N 34°33' E 138°52'714.2
2018-Feb-16 12:29N 34°32' E 138°43'714.0
2018-Feb-16 11:58N 34°32' E 138°34'613.4
2018-Feb-16 11:30N 34°32' E 138°27'814.3
2018-Feb-16 10:58N 34°32' E 138°18'714.1
2018-Feb-16 10:28N 34°32' E 138°09'613.5
2018-Feb-16 10:00N 34°32' E 138°01'813.2
2018-Feb-16 09:25N 34°32' E 137°52'612.4
2018-Feb-16 08:57N 34°32' E 137°45'1812.1
2018-Feb-16 07:29N 34°32' E 137°23'612.5
2018-Feb-16 06:59N 34°32' E 137°16'1112.3
2018-Feb-16 06:07N 34°32' E 137°03'511.5
2018-Feb-16 05:42N 34°35' E 136°58'212.4
2018-Feb-16 05:30N 34°37' E 136°56'612.6
2018-Feb-16 05:00N 34°41' E 136°50'713.2
2018-Feb-16 04:30N 34°47' E 136°46'613.0
2018-Feb-16 04:00N 34°53' E 136°46'612.8
2018-Feb-16 03:30N 34°59' E 136°49'5 9.4
2018-Feb-16 03:00N 35°03' E 136°52'1 2.7
2018-Feb-16 02:30N 35°04' E 136°53'0 0.0
2018-Feb-16 02:00N 35°04' E 136°53'0 0.0
2018-Feb-16 01:30N 35°04' E 136°53'0 0.0
2018-Feb-16 01:00N 35°04' E 136°53'0 0.0
2018-Feb-16 00:30N 35°04' E 136°53'0 0.0
2018-Feb-16 00:00N 35°04' E 136°53'0 0.0
2018-Feb-15 23:27N 35°04' E 136°53'0 0.0
2018-Feb-15 23:00N 35°04' E 136°53'0 0.0
2018-Feb-15 22:30N 35°04' E 136°53'0 0.0
2018-Feb-15 22:00N 35°04' E 136°53'0 0.7
2018-Feb-15 21:30N 35°03' E 136°53'4 8.6
2018-Feb-15 21:00N 35°00' E 136°50'3 6.3
2018-Feb-15 20:30N 34°58' E 136°47'0 0.2
2018-Feb-15 20:00N 34°58' E 136°47'0 0.0
2018-Feb-15 19:30N 34°58' E 136°47'0 0.1
2018-Feb-15 19:00N 34°58' E 136°47'0 0.1
2018-Feb-15 18:30N 34°58' E 136°47'0 0.0
2018-Feb-15 18:00N 34°58' E 136°47'0 0.0
2018-Feb-15 17:30N 34°58' E 136°47'0 0.0
2018-Feb-15 17:00N 34°58' E 136°47'0 0.1
2018-Feb-15 16:30N 34°58' E 136°47'0 0.0
2018-Feb-15 16:00N 34°58' E 136°47'0 0.0
2018-Feb-15 15:30N 34°58' E 136°47'0 0.0
2018-Feb-15 15:00N 34°58' E 136°47'1 1.5
2018-Feb-15 14:30N 34°57' E 136°47'610.8
2018-Feb-15 14:00N 34°51' E 136°47'611.8
2018-Feb-15 13:30N 34°46' E 136°49'611.5
2018-Feb-15 12:59N 34°41' E 136°53'711.7
2018-Feb-15 12:23N 34°35' E 136°58'3210.8
2018-Feb-15 09:28N 34°05' E 136°48'19512.6
2018-Feb-14 18:02N 32°45' E 133°15'6312.5
2018-Feb-14 13:03N 33°11' E 132°07'314.1
2018-Feb-14 12:49N 33°13' E 132°04'513.7
2018-Feb-14 12:27N 33°17' E 132°01'612.5
2018-Feb-14 11:59N 33°22' E 131°57'912.8
2018-Feb-14 11:16N 33°30' E 131°52'312.8
2018-Feb-14 11:00N 33°33' E 131°50'612.7
2018-Feb-14 10:30N 33°38' E 131°45'612.4
2018-Feb-14 10:00N 33°41' E 131°39'612.3
2018-Feb-14 09:30N 33°43' E 131°32'612.5
2018-Feb-14 09:00N 33°45' E 131°24'612.8
2018-Feb-14 08:31N 33°46' E 131°17'613.0
2018-Feb-14 08:00N 33°48' E 131°09'612.1
2018-Feb-14 07:31N 33°48' E 131°02'2 0.7
2018-Feb-14 04:32N 33°48' E 130°60'0 0.1
2018-Feb-14 04:20N 33°48' E 130°60'0 0.0
2018-Feb-14 03:56N 33°48' E 130°60'0 0.0
2018-Feb-14 03:26N 33°48' E 130°60'0 0.0
2018-Feb-14 01:08N 33°48' E 130°60'0 0.1
2018-Feb-14 00:56N 33°48' E 130°60'0 0.0
2018-Feb-14 00:26N 33°48' E 130°60'0 0.0
2018-Feb-13 23:56N 33°48' E 130°60'0 0.0
2018-Feb-13 23:26N 33°48' E 130°60'0 0.0
2018-Feb-13 22:55N 33°48' E 130°60'0 0.0
2018-Feb-13 22:25N 33°48' E 130°60'0 0.0
2018-Feb-13 21:55N 33°48' E 130°60'0 0.0
2018-Feb-13 21:25N 33°48' E 130°60'0 0.0
2018-Feb-13 20:55N 33°48' E 130°60'0 0.0
2018-Feb-13 20:19N 33°48' E 130°60'0 0.0
2018-Feb-13 19:55N 33°48' E 130°60'0 0.0
2018-Feb-13 19:13N 33°48' E 130°60'0 0.0
2018-Feb-13 18:49N 33°48' E 130°60'  

Dump ship's entire track history